createdAt,value
2018-09-23T00:00:07.407Z,0.00
2018-09-23T00:01:07.282Z,0.00
2018-09-23T00:02:07.158Z,0.00
2018-09-23T00:03:07.035Z,0.00
2018-09-23T00:04:06.913Z,0.00
2018-09-23T00:05:06.787Z,0.00
2018-09-23T00:06:06.662Z,0.00
2018-09-23T00:07:06.537Z,0.00
2018-09-23T00:08:06.414Z,0.00
2018-09-23T00:09:06.290Z,0.00
2018-09-23T00:10:06.170Z,0.00
2018-09-23T00:11:06.044Z,0.00
2018-09-23T00:12:05.917Z,0.00
2018-09-23T00:13:05.794Z,0.00
2018-09-23T00:14:05.688Z,0.00
2018-09-23T00:15:05.545Z,0.00
2018-09-23T00:16:05.423Z,0.00
2018-09-23T00:17:05.296Z,0.00
2018-09-23T00:18:05.178Z,0.00
2018-09-23T00:19:05.050Z,0.00
2018-09-23T00:20:04.930Z,0.00
2018-09-23T00:21:04.800Z,0.00
2018-09-23T00:22:04.692Z,0.00
2018-09-23T00:23:04.555Z,0.00
2018-09-23T00:24:04.430Z,0.00
2018-09-23T00:25:04.309Z,0.00
2018-09-23T00:26:04.184Z,0.00
2018-09-23T00:27:04.058Z,0.00
2018-09-23T00:28:03.933Z,0.00
2018-09-23T00:29:03.810Z,0.00
2018-09-23T00:30:03.688Z,0.00
2018-09-23T00:31:03.563Z,0.00
2018-09-23T00:32:03.442Z,0.00
2018-09-23T00:33:03.316Z,0.00
2018-09-23T00:34:03.192Z,0.00
2018-09-23T00:35:03.069Z,0.00
2018-09-23T00:36:02.944Z,0.00
2018-09-23T00:37:02.818Z,0.00
2018-09-23T00:38:02.697Z,0.00
2018-09-23T00:39:02.572Z,0.00
2018-09-23T00:40:02.447Z,0.00
2018-09-23T00:41:02.323Z,0.00
2018-09-23T00:42:02.204Z,0.00
2018-09-23T00:43:02.076Z,0.00
2018-09-23T00:44:01.950Z,0.00
2018-09-23T00:45:01.831Z,0.00
2018-09-23T00:46:01.705Z,0.00
2018-09-23T00:47:01.580Z,0.00
2018-09-23T00:48:01.455Z,0.00
2018-09-23T00:49:01.331Z,0.00
2018-09-23T00:50:01.209Z,0.00
2018-09-23T00:51:01.090Z,0.00
2018-09-23T00:52:00.958Z,0.00
2018-09-23T00:53:00.836Z,0.00
2018-09-23T00:54:00.711Z,0.00
2018-09-23T00:55:00.587Z,0.00
2018-09-23T00:56:00.462Z,0.00
2018-09-23T00:57:00.337Z,0.00
2018-09-23T00:58:00.216Z,0.00
2018-09-23T00:59:00.091Z,0.00
2018-09-23T00:59:59.966Z,0.00
2018-09-23T01:00:59.839Z,0.00
2018-09-23T01:01:59.717Z,0.00
2018-09-23T01:02:59.594Z,0.00
2018-09-23T01:03:59.466Z,0.00
2018-09-23T01:04:59.343Z,0.00
2018-09-23T01:05:59.218Z,0.00
2018-09-23T01:06:59.096Z,0.00
2018-09-23T01:07:58.969Z,0.00
2018-09-23T01:08:58.847Z,0.00
2018-09-23T01:09:58.723Z,0.00
2018-09-23T01:10:58.602Z,0.00
2018-09-23T01:11:58.475Z,0.00
2018-09-23T01:12:58.351Z,0.00
2018-09-23T01:13:58.228Z,0.00
2018-09-23T01:14:58.101Z,0.00
2018-09-23T01:15:57.979Z,0.00
2018-09-23T01:16:57.855Z,0.00
2018-09-23T01:17:57.729Z,0.00
2018-09-23T01:18:57.604Z,0.00
2018-09-23T01:19:57.481Z,0.00
2018-09-23T01:20:57.357Z,0.00
2018-09-23T01:21:57.233Z,0.00
2018-09-23T01:22:57.109Z,0.00
2018-09-23T01:23:56.985Z,0.00
2018-09-23T01:24:56.862Z,0.00
2018-09-23T01:25:56.738Z,0.00
2018-09-23T01:26:56.614Z,0.00
2018-09-23T01:27:56.489Z,0.00
2018-09-23T01:28:56.366Z,0.00
2018-09-23T01:29:56.242Z,0.00
2018-09-23T01:30:56.118Z,0.00
2018-09-23T01:31:55.994Z,0.00
2018-09-23T01:32:55.873Z,0.00
2018-09-23T01:33:55.747Z,0.00
2018-09-23T01:34:55.623Z,0.00
2018-09-23T01:35:55.496Z,0.00
2018-09-23T01:36:55.382Z,0.00
2018-09-23T01:37:55.251Z,0.00
2018-09-23T01:38:55.128Z,0.00
2018-09-23T01:39:55.005Z,0.00
2018-09-23T01:40:54.877Z,0.00
2018-09-23T01:41:54.754Z,0.00
2018-09-23T01:42:54.632Z,0.00
2018-09-23T01:43:54.508Z,0.00
2018-09-23T01:44:54.391Z,0.00
2018-09-23T01:45:54.260Z,0.00
2018-09-23T01:46:54.137Z,0.00
2018-09-23T01:47:54.012Z,0.00
2018-09-23T01:48:53.890Z,0.00
2018-09-23T01:49:53.764Z,0.00
2018-09-23T01:50:53.641Z,0.00
2018-09-23T01:51:53.515Z,0.00
2018-09-23T01:52:53.395Z,0.00
2018-09-23T01:53:53.269Z,0.00
2018-09-23T01:54:53.155Z,0.00
2018-09-23T01:55:53.020Z,0.00
2018-09-23T01:56:52.897Z,0.00
2018-09-23T01:57:52.775Z,0.00
2018-09-23T01:58:52.650Z,0.00
2018-09-23T01:59:52.523Z,0.00
2018-09-23T02:00:52.400Z,0.00
2018-09-23T02:01:52.279Z,0.00
2018-09-23T02:02:52.164Z,0.00
2018-09-23T02:03:52.028Z,0.00
2018-09-23T02:04:51.902Z,0.00
2018-09-23T02:05:51.782Z,0.00
2018-09-23T02:06:51.654Z,0.00
2018-09-23T02:07:51.530Z,0.00
2018-09-23T02:08:51.406Z,0.00
2018-09-23T02:09:51.284Z,0.00
2018-09-23T02:10:51.160Z,0.00
2018-09-23T02:11:51.035Z,0.00
2018-09-23T02:12:50.910Z,0.00
2018-09-23T02:13:50.785Z,0.00
2018-09-23T02:14:50.661Z,0.00
2018-09-23T02:15:50.537Z,0.00
2018-09-23T02:16:50.414Z,0.00
2018-09-23T02:17:50.288Z,0.00
2018-09-23T02:18:50.167Z,0.00
2018-09-23T02:19:50.040Z,0.00
2018-09-23T02:20:49.919Z,0.00
2018-09-23T02:21:49.793Z,0.00
2018-09-23T02:22:49.670Z,0.00
2018-09-23T02:23:49.544Z,0.00
2018-09-23T02:24:49.421Z,0.00
2018-09-23T02:25:49.296Z,0.00
2018-09-23T02:26:49.172Z,0.00
2018-09-23T02:27:49.047Z,0.00
2018-09-23T02:28:48.926Z,0.00
2018-09-23T02:29:48.800Z,0.00
2018-09-23T02:30:48.676Z,0.00
2018-09-23T02:31:48.549Z,0.00
2018-09-23T02:32:48.429Z,0.00
2018-09-23T02:33:48.303Z,0.00
2018-09-23T02:34:48.182Z,0.00
2018-09-23T02:35:48.054Z,0.00
2018-09-23T02:36:47.932Z,0.00
2018-09-23T02:37:47.819Z,0.00
2018-09-23T02:38:47.687Z,0.00
2018-09-23T02:39:47.562Z,0.00
2018-09-23T02:40:47.436Z,0.00
2018-09-23T02:41:47.310Z,0.00
2018-09-23T02:42:47.187Z,0.00
2018-09-23T02:43:47.062Z,0.00
2018-09-23T02:44:46.937Z,0.00
2018-09-23T02:45:46.812Z,0.00
2018-09-23T02:46:46.690Z,0.00
2018-09-23T02:47:46.564Z,0.00
2018-09-23T02:48:46.440Z,0.00
2018-09-23T02:49:46.320Z,0.00
2018-09-23T02:50:46.194Z,0.00
2018-09-23T02:51:46.066Z,0.00
2018-09-23T02:52:45.941Z,0.00
2018-09-23T02:53:45.820Z,0.00
2018-09-23T02:54:45.694Z,0.00
2018-09-23T02:55:45.568Z,0.00
2018-09-23T02:56:45.447Z,0.00
2018-09-23T02:57:45.325Z,0.00
2018-09-23T02:58:45.196Z,0.00
2018-09-23T02:59:45.071Z,0.00
2018-09-23T03:00:44.954Z,0.00
2018-09-23T03:01:44.823Z,0.00
2018-09-23T03:02:44.699Z,0.00
2018-09-23T03:03:44.573Z,0.00
2018-09-23T03:04:44.451Z,0.00
2018-09-23T03:05:44.325Z,0.00
2018-09-23T03:06:44.200Z,0.00
2018-09-23T03:07:44.076Z,0.00
2018-09-23T03:08:43.950Z,0.00
2018-09-23T03:09:43.828Z,0.00
2018-09-23T03:10:43.703Z,0.00
2018-09-23T03:11:43.576Z,0.00
2018-09-23T03:12:43.454Z,0.00
2018-09-23T03:13:43.331Z,0.00
2018-09-23T03:14:43.205Z,0.00
2018-09-23T03:15:43.080Z,0.00
2018-09-23T03:16:42.955Z,0.00
2018-09-23T03:17:42.832Z,0.00
2018-09-23T03:18:42.707Z,0.00
2018-09-23T03:19:42.583Z,0.00
2018-09-23T03:20:42.457Z,0.00
2018-09-23T03:21:42.335Z,0.00
2018-09-23T03:22:42.212Z,0.00
2018-09-23T03:23:42.083Z,0.00
2018-09-23T03:24:41.959Z,0.00
2018-09-23T03:25:41.835Z,0.00
2018-09-23T03:26:41.710Z,0.00
2018-09-23T03:27:41.585Z,0.00
2018-09-23T03:28:41.461Z,0.00
2018-09-23T03:29:41.336Z,0.00
2018-09-23T03:30:41.212Z,0.00
2018-09-23T03:31:41.084Z,0.00
2018-09-23T03:32:40.963Z,0.00
2018-09-23T03:33:40.835Z,0.00
2018-09-23T03:34:40.715Z,0.00
2018-09-23T03:35:40.586Z,0.00
2018-09-23T03:36:40.463Z,0.00
2018-09-23T03:37:40.344Z,0.00
2018-09-23T03:38:40.213Z,0.00
2018-09-23T03:39:40.101Z,0.00
2018-09-23T03:40:39.963Z,0.00
2018-09-23T03:41:39.840Z,0.00
2018-09-23T03:42:39.715Z,0.00
2018-09-23T03:43:39.590Z,0.00
2018-09-23T03:44:39.475Z,0.00
2018-09-23T03:45:39.340Z,0.00
2018-09-23T03:46:39.219Z,0.00
2018-09-23T03:47:39.090Z,0.00
2018-09-23T03:48:38.967Z,0.00
2018-09-23T03:49:38.848Z,0.00
2018-09-23T03:50:38.771Z,0.00
2018-09-23T03:51:38.598Z,0.00
2018-09-23T03:52:38.469Z,0.00
2018-09-23T03:53:38.345Z,0.00
2018-09-23T03:54:38.221Z,0.00
2018-09-23T03:55:38.095Z,0.00
2018-09-23T03:56:37.971Z,0.00
2018-09-23T03:57:37.845Z,0.00
2018-09-23T03:58:37.722Z,0.00
2018-09-23T03:59:37.607Z,0.00
2018-09-23T04:00:37.474Z,0.00
2018-09-23T04:01:37.347Z,0.00
2018-09-23T04:02:37.222Z,0.00
2018-09-23T04:03:37.103Z,0.00
2018-09-23T04:04:36.974Z,0.00
2018-09-23T04:05:36.851Z,0.00
2018-09-23T04:06:36.725Z,0.00
2018-09-23T04:07:36.600Z,0.00
2018-09-23T04:08:36.475Z,0.00
2018-09-23T04:09:36.351Z,0.00
2018-09-23T04:10:36.227Z,0.00
2018-09-23T04:11:36.105Z,0.00
2018-09-23T04:12:35.979Z,0.00
2018-09-23T04:13:35.853Z,0.00
2018-09-23T04:14:35.728Z,0.00
2018-09-23T04:15:35.604Z,0.00
2018-09-23T04:16:35.479Z,0.00
2018-09-23T04:17:35.353Z,0.00
2018-09-23T04:18:35.232Z,0.00
2018-09-23T04:19:35.104Z,0.00
2018-09-23T04:20:34.982Z,0.00
2018-09-23T04:21:34.857Z,0.00
2018-09-23T04:22:34.733Z,0.00
2018-09-23T04:23:34.607Z,0.00
2018-09-23T04:24:34.483Z,0.00
2018-09-23T04:25:34.362Z,0.00
2018-09-23T04:26:34.236Z,0.00
2018-09-23T04:27:34.110Z,0.00
2018-09-23T04:28:33.984Z,0.00
2018-09-23T04:29:33.859Z,0.00
2018-09-23T04:30:33.736Z,0.00
2018-09-23T04:31:33.615Z,0.00
2018-09-23T04:32:33.497Z,0.00
2018-09-23T04:33:33.363Z,0.00
2018-09-23T04:34:33.239Z,0.00
2018-09-23T04:35:33.114Z,0.00
2018-09-23T04:36:32.992Z,0.00
2018-09-23T04:37:32.895Z,0.00
2018-09-23T04:38:32.741Z,0.00
2018-09-23T04:39:32.618Z,0.00
2018-09-23T04:40:32.493Z,0.00
2018-09-23T04:41:32.370Z,0.00
2018-09-23T04:42:32.245Z,0.00
2018-09-23T04:43:32.121Z,0.00
2018-09-23T04:44:31.999Z,0.00
2018-09-23T04:45:31.870Z,0.00
2018-09-23T04:46:31.748Z,0.00
2018-09-23T04:47:31.622Z,0.00
2018-09-23T04:48:31.514Z,0.00
2018-09-23T04:49:31.373Z,0.00
2018-09-23T04:50:31.285Z,4.00
2018-09-23T04:51:31.128Z,4.00
2018-09-23T04:52:31.003Z,4.00
2018-09-23T04:53:30.877Z,0.00
2018-09-23T04:54:30.753Z,4.00
2018-09-23T04:55:30.629Z,8.00
2018-09-23T04:56:30.501Z,4.00
2018-09-23T04:57:30.379Z,8.00
2018-09-23T04:58:30.286Z,8.00
2018-09-23T04:59:30.174Z,8.00
2018-09-23T05:00:30.006Z,12.00
2018-09-23T05:01:29.884Z,16.00
2018-09-23T05:02:29.797Z,16.00
2018-09-23T05:03:29.636Z,20.00
2018-09-23T05:04:29.519Z,20.00
2018-09-23T05:05:29.385Z,20.00
2018-09-23T05:06:29.261Z,28.00
2018-09-23T05:07:29.143Z,32.00
2018-09-23T05:08:29.013Z,36.00
2018-09-23T05:09:28.888Z,40.00
2018-09-23T05:10:28.764Z,48.00
2018-09-23T05:11:28.668Z,56.00
2018-09-23T05:12:28.594Z,60.00
2018-09-23T05:13:28.391Z,60.00
2018-09-23T05:14:28.269Z,72.00
2018-09-23T05:15:28.145Z,88.00
2018-09-23T05:16:28.023Z,112.00
2018-09-23T05:17:27.895Z,108.00
2018-09-23T05:18:27.770Z,108.00
2018-09-23T05:19:27.646Z,120.00
2018-09-23T05:20:27.523Z,128.00
2018-09-23T05:21:27.400Z,120.00
2018-09-23T05:22:27.275Z,124.00
2018-09-23T05:23:27.150Z,136.00
2018-09-23T05:24:27.026Z,156.00
2018-09-23T05:25:26.904Z,180.00
2018-09-23T05:26:26.779Z,160.00
2018-09-23T05:27:26.654Z,156.00
2018-09-23T05:28:26.530Z,168.00
2018-09-23T05:29:26.405Z,160.00
2018-09-23T05:30:26.295Z,152.00
2018-09-23T05:31:26.159Z,176.00
2018-09-23T05:32:26.034Z,196.00
2018-09-23T05:33:25.913Z,204.00
2018-09-23T05:34:25.785Z,204.00
2018-09-23T05:35:25.728Z,196.00
2018-09-23T05:36:25.538Z,196.00
2018-09-23T05:37:25.415Z,200.00
2018-09-23T05:38:25.290Z,216.00
2018-09-23T05:39:25.170Z,256.00
2018-09-23T05:40:25.042Z,288.00
2018-09-23T05:41:24.918Z,308.00
2018-09-23T05:42:24.797Z,316.00
2018-09-23T05:43:24.673Z,312.00
2018-09-23T05:44:24.551Z,312.00
2018-09-23T05:45:24.422Z,276.00
2018-09-23T05:46:24.299Z,220.00
2018-09-23T05:47:24.174Z,188.00
2018-09-23T05:48:24.053Z,220.00
2018-09-23T05:49:23.927Z,228.00
2018-09-23T05:50:23.805Z,224.00
2018-09-23T05:51:23.677Z,212.00
2018-09-23T05:52:23.556Z,200.00
2018-09-23T05:53:23.433Z,196.00
2018-09-23T05:54:23.306Z,196.00
2018-09-23T05:55:23.181Z,180.00
2018-09-23T05:56:23.063Z,164.00
2018-09-23T05:57:22.936Z,168.00
2018-09-23T05:58:22.819Z,192.00
2018-09-23T05:59:22.690Z,224.00
2018-09-23T06:00:22.565Z,248.00
2018-09-23T06:01:22.441Z,244.00
2018-09-23T06:02:22.316Z,240.00
2018-09-23T06:03:22.192Z,228.00
2018-09-23T06:04:22.066Z,264.00
2018-09-23T06:05:21.947Z,292.00
2018-09-23T06:06:21.820Z,288.00
2018-09-23T06:07:21.696Z,316.00
2018-09-23T06:08:21.572Z,360.00
2018-09-23T06:09:21.455Z,352.00
2018-09-23T06:10:21.324Z,328.00
2018-09-23T06:11:21.206Z,348.00
2018-09-23T06:12:21.123Z,356.00
2018-09-23T06:13:21.009Z,376.00
2018-09-23T06:14:20.866Z,396.00
2018-09-23T06:15:20.707Z,444.00
2018-09-23T06:16:20.583Z,432.00
2018-09-23T06:17:20.459Z,452.00
2018-09-23T06:18:20.340Z,452.00
2018-09-23T06:19:20.212Z,496.00
2018-09-23T06:20:20.089Z,512.00
2018-09-23T06:21:19.967Z,488.00
2018-09-23T06:22:19.906Z,560.00
2018-09-23T06:23:19.719Z,592.00
2018-09-23T06:24:19.594Z,608.00
2018-09-23T06:25:19.588Z,600.00
2018-09-23T06:26:19.345Z,652.00
2018-09-23T06:27:19.259Z,676.00
2018-09-23T06:28:19.106Z,692.00
2018-09-23T06:29:18.976Z,748.00
2018-09-23T06:30:18.851Z,744.00
2018-09-23T06:31:18.727Z,772.00
2018-09-23T06:32:18.602Z,784.00
2018-09-23T06:33:18.481Z,788.00
2018-09-23T06:34:18.404Z,748.00
2018-09-23T06:35:18.233Z,816.00
2018-09-23T06:36:18.114Z,940.00
2018-09-23T06:37:17.987Z,832.00
2018-09-23T06:38:17.865Z,820.00
2018-09-23T06:39:17.739Z,844.00
2018-09-23T06:40:17.615Z,976.00
2018-09-23T06:41:17.491Z,1000.00
2018-09-23T06:42:17.367Z,1104.00
2018-09-23T06:43:17.242Z,1172.00
2018-09-23T06:44:17.127Z,1376.00
2018-09-23T06:45:16.996Z,1252.00
2018-09-23T06:46:16.873Z,1292.00
2018-09-23T06:47:16.750Z,1480.00
2018-09-23T06:48:16.703Z,1424.00
2018-09-23T06:49:16.503Z,1564.00
2018-09-23T06:50:16.380Z,2044.00
2018-09-23T06:51:16.271Z,1620.00
2018-09-23T06:52:16.135Z,1796.00
2018-09-23T06:53:16.010Z,1720.00
2018-09-23T06:54:15.889Z,1940.00
2018-09-23T06:55:15.765Z,1968.00
2018-09-23T06:56:15.641Z,2064.00
2018-09-23T06:57:15.544Z,2200.00
2018-09-23T06:58:15.392Z,2392.00
2018-09-23T06:59:15.270Z,2444.00
2018-09-23T07:00:15.150Z,2544.00
2018-09-23T07:01:15.026Z,2576.00
2018-09-23T07:02:14.905Z,2628.00
2018-09-23T07:03:14.778Z,2688.00
2018-09-23T07:04:14.654Z,2704.00
2018-09-23T07:05:14.528Z,2636.00
2018-09-23T07:06:14.407Z,2616.00
2018-09-23T07:07:14.286Z,2664.00
2018-09-23T07:08:14.164Z,2596.00
2018-09-23T07:09:14.039Z,2536.00
2018-09-23T07:10:13.926Z,2444.00
2018-09-23T07:11:13.795Z,2212.00
2018-09-23T07:12:13.670Z,2044.00
2018-09-23T07:13:13.550Z,1964.00
2018-09-23T07:14:13.428Z,1896.00
2018-09-23T07:15:13.304Z,1644.00
2018-09-23T07:16:13.183Z,1492.00
2018-09-23T07:17:13.058Z,1468.00
2018-09-23T07:18:13.001Z,1580.00
2018-09-23T07:19:12.814Z,1736.00
2018-09-23T07:20:12.694Z,1652.00
2018-09-23T07:21:12.571Z,1800.00
2018-09-23T07:22:12.451Z,1748.00
2018-09-23T07:23:12.328Z,1740.00
2018-09-23T07:24:12.272Z,1764.00
2018-09-23T07:25:12.085Z,2116.00
2018-09-23T07:26:11.962Z,2328.00
2018-09-23T07:27:11.840Z,1992.00
2018-09-23T07:28:11.720Z,1728.00
2018-09-23T07:29:11.600Z,1744.00
2018-09-23T07:30:11.482Z,1912.00
2018-09-23T07:31:11.353Z,1880.00
2018-09-23T07:32:11.236Z,1708.00
2018-09-23T07:33:11.112Z,2156.00
2018-09-23T07:34:10.992Z,2240.00
2018-09-23T07:35:10.868Z,2252.00
2018-09-23T07:36:10.749Z,2104.00
2018-09-23T07:37:10.651Z,2188.00
2018-09-23T07:38:10.511Z,1924.00
2018-09-23T07:39:10.383Z,2196.00
2018-09-23T07:40:10.266Z,2400.00
2018-09-23T07:41:10.147Z,2460.00
2018-09-23T07:42:10.022Z,1220.00
2018-09-23T07:43:09.906Z,960.00
2018-09-23T07:44:09.780Z,1904.00
2018-09-23T07:45:09.659Z,2020.00
2018-09-23T07:46:09.539Z,1820.00
2018-09-23T07:47:09.418Z,1624.00
2018-09-23T07:48:09.331Z,1612.00
2018-09-23T07:49:09.176Z,796.00
2018-09-23T07:50:09.056Z,1284.00
2018-09-23T07:51:08.936Z,1568.00
2018-09-23T07:52:08.813Z,1544.00
2018-09-23T07:53:08.694Z,1544.00
2018-09-23T07:54:08.573Z,1544.00
2018-09-23T07:55:08.451Z,1540.00
2018-09-23T07:56:08.378Z,1540.00
2018-09-23T07:57:08.213Z,1540.00
2018-09-23T07:58:08.091Z,1544.00
2018-09-23T07:59:07.968Z,1568.00
2018-09-23T08:00:07.848Z,1548.00
2018-09-23T08:01:07.729Z,1556.00
2018-09-23T08:02:07.609Z,1564.00
2018-09-23T08:03:07.489Z,1568.00
2018-09-23T08:04:07.373Z,1572.00
2018-09-23T08:05:07.250Z,1580.00
2018-09-23T08:06:07.130Z,1604.00
2018-09-23T08:07:07.008Z,1640.00
2018-09-23T08:08:06.891Z,1684.00
2018-09-23T08:09:06.769Z,1732.00
2018-09-23T08:10:06.649Z,1836.00
2018-09-23T08:11:06.530Z,1984.00
2018-09-23T08:12:06.413Z,2108.00
2018-09-23T08:13:06.493Z,2188.00
2018-09-23T08:14:06.632Z,2272.00
2018-09-23T08:15:06.157Z,2352.00
2018-09-23T08:16:05.933Z,2424.00
2018-09-23T08:17:05.866Z,2472.00
2018-09-23T08:18:05.697Z,2468.00
2018-09-23T08:19:05.577Z,2536.00
2018-09-23T08:20:05.510Z,2616.00
2018-09-23T08:21:05.370Z,2548.00
2018-09-23T08:22:05.221Z,2468.00
2018-09-23T08:23:05.138Z,2372.00
2018-09-23T08:24:04.987Z,2228.00
2018-09-23T08:25:04.935Z,2116.00
2018-09-23T08:26:04.746Z,1968.00
2018-09-23T08:27:04.627Z,1836.00
2018-09-23T08:28:04.510Z,1764.00
2018-09-23T08:29:04.399Z,1760.00
2018-09-23T08:30:04.273Z,1776.00
2018-09-23T08:31:04.155Z,1796.00
2018-09-23T08:32:04.035Z,1820.00
2018-09-23T08:33:03.969Z,1836.00
2018-09-23T08:34:03.802Z,1848.00
2018-09-23T08:35:03.681Z,1880.00
2018-09-23T08:36:03.581Z,1912.00
2018-09-23T08:37:03.446Z,1948.00
2018-09-23T08:38:03.328Z,1972.00
2018-09-23T08:39:03.211Z,2020.00
2018-09-23T08:40:03.101Z,2064.00
2018-09-23T08:41:02.974Z,2140.00
2018-09-23T08:42:02.857Z,2232.00
2018-09-23T08:43:02.744Z,2324.00
2018-09-23T08:44:02.620Z,2364.00
2018-09-23T08:45:02.504Z,2380.00
2018-09-23T08:46:02.389Z,2416.00
2018-09-23T08:47:02.267Z,2344.00
2018-09-23T08:48:02.173Z,2240.00
2018-09-23T08:49:02.039Z,2168.00
2018-09-23T08:50:01.916Z,2164.00
2018-09-23T08:51:01.799Z,2428.00
2018-09-23T08:52:01.754Z,2432.00
2018-09-23T08:53:01.570Z,1236.00
2018-09-23T08:54:01.448Z,888.00
2018-09-23T08:55:01.329Z,1728.00
2018-09-23T08:56:01.258Z,1900.00
2018-09-23T08:57:01.098Z,1888.00
2018-09-23T08:58:00.981Z,1920.00
2018-09-23T08:59:00.863Z,1884.00
2018-09-23T09:00:00.745Z,1860.00
2018-09-23T09:01:00.630Z,1856.00
2018-09-23T09:02:00.513Z,1860.00
2018-09-23T09:03:00.396Z,1872.00
2018-09-23T09:04:00.279Z,1884.00
2018-09-23T09:05:00.162Z,1892.00
2018-09-23T09:06:00.046Z,1896.00
2018-09-23T09:24:47.071Z,2048.00
2018-09-23T09:36:19.268Z,2212.00
2018-09-23T09:37:19.015Z,2200.00
2018-09-23T09:39:11.694Z,2204.00
2018-09-23T09:40:11.569Z,2216.00
2018-09-23T09:42:04.274Z,2264.00
2018-09-23T09:43:04.118Z,2252.00
2018-09-23T09:44:56.842Z,2256.00
2018-09-23T09:45:56.676Z,2300.00
2018-09-23T09:47:49.387Z,2296.00
2018-09-23T09:48:49.228Z,1672.00
2018-09-23T09:50:41.974Z,2256.00
2018-09-23T09:51:41.820Z,2268.00
2018-09-23T09:52:41.674Z,2352.00
2018-09-23T09:53:41.558Z,2584.00
2018-09-23T09:54:41.472Z,2536.00
2018-09-23T09:55:41.411Z,2384.00
2018-09-23T09:56:41.326Z,2316.00
2018-09-23T09:57:41.157Z,2372.00
2018-09-23T09:58:40.983Z,2596.00
2018-09-23T09:59:40.968Z,2648.00
2018-09-23T10:00:40.769Z,2416.00
2018-09-23T10:01:40.632Z,2348.00
2018-09-23T10:02:40.518Z,2324.00
2018-09-23T10:03:40.461Z,2376.00
2018-09-23T10:04:40.312Z,2480.00
2018-09-23T10:05:40.174Z,2816.00
2018-09-23T10:06:40.059Z,2920.00
2018-09-23T10:07:39.944Z,2772.00
2018-09-23T10:08:39.830Z,2620.00
2018-09-23T10:09:39.712Z,2428.00
2018-09-23T10:10:39.607Z,2408.00
2018-09-23T10:11:39.568Z,2444.00
2018-09-23T10:12:39.369Z,2504.00
2018-09-23T10:13:39.254Z,2448.00
2018-09-23T10:14:39.140Z,2484.00
2018-09-23T10:15:39.025Z,2444.00
2018-09-23T10:16:38.913Z,2484.00
2018-09-23T10:17:38.796Z,2640.00
2018-09-23T10:18:38.689Z,2464.00
2018-09-23T10:19:38.615Z,2400.00
2018-09-23T10:20:38.455Z,2408.00
2018-09-23T10:21:38.341Z,2408.00
2018-09-23T10:22:38.263Z,2404.00
2018-09-23T10:23:38.251Z,860.00
2018-09-23T10:24:38.002Z,2408.00
2018-09-23T10:25:37.895Z,2408.00
2018-09-23T10:26:37.770Z,2412.00
2018-09-23T10:27:37.657Z,2416.00
2018-09-23T10:28:37.543Z,2420.00
2018-09-23T10:29:37.447Z,2416.00
2018-09-23T10:30:37.316Z,2420.00
2018-09-23T10:31:37.331Z,2428.00
2018-09-23T10:32:37.088Z,2432.00
2018-09-23T10:33:36.973Z,2428.00
2018-09-23T10:34:37.008Z,2440.00
2018-09-23T10:35:36.759Z,2456.00
2018-09-23T10:36:36.632Z,2452.00
2018-09-23T10:37:36.519Z,2472.00
2018-09-23T10:38:36.405Z,2472.00
2018-09-23T10:39:36.310Z,2448.00
2018-09-23T10:40:36.174Z,2460.00
2018-09-23T10:41:36.062Z,2476.00
2018-09-23T10:42:35.952Z,2488.00
2018-09-23T10:43:35.835Z,2464.00
2018-09-23T10:44:35.720Z,2456.00
2018-09-23T10:45:35.607Z,2448.00
2018-09-23T10:46:35.496Z,2480.00
2018-09-23T10:47:35.381Z,2492.00
2018-09-23T10:48:35.266Z,2484.00
2018-09-23T10:49:35.206Z,2504.00
2018-09-23T10:50:35.048Z,2500.00
2018-09-23T10:51:34.932Z,2496.00
2018-09-23T10:52:34.813Z,2564.00
2018-09-23T10:53:34.700Z,2560.00
2018-09-23T10:54:34.585Z,2584.00
2018-09-23T10:55:34.560Z,2652.00
2018-09-23T10:56:34.360Z,2804.00
2018-09-23T10:57:34.247Z,3332.00
2018-09-23T10:58:34.135Z,3904.00
2018-09-23T10:59:34.064Z,4472.00
2018-09-23T11:00:33.907Z,4736.00
2018-09-23T11:01:33.793Z,4488.00
2018-09-23T11:02:33.681Z,4524.00
2018-09-23T11:03:33.582Z,3580.00
2018-09-23T11:04:33.453Z,3080.00
2018-09-23T11:05:33.550Z,3580.00
2018-09-23T11:06:33.287Z,3844.00
2018-09-23T11:07:33.519Z,4628.00
2018-09-23T11:08:33.000Z,4432.00
2018-09-23T11:09:32.888Z,5984.00
2018-09-23T11:10:32.774Z,6560.00
2018-09-23T11:11:32.662Z,6692.00
2018-09-23T11:12:32.547Z,6176.00
2018-09-23T11:13:32.437Z,4648.00
2018-09-23T11:14:32.322Z,5300.00
2018-09-23T11:15:32.212Z,4572.00
2018-09-23T11:16:32.096Z,3432.00
2018-09-23T11:17:32.012Z,3664.00
2018-09-23T11:18:31.872Z,4412.00
2018-09-23T11:19:31.756Z,4468.00
2018-09-23T11:20:31.644Z,4284.00
2018-09-23T11:21:31.532Z,3752.00
2018-09-23T11:22:31.416Z,3460.00
2018-09-23T11:23:31.362Z,3884.00
2018-09-23T11:24:31.205Z,4736.00
2018-09-23T11:25:31.076Z,5268.00
2018-09-23T11:26:30.964Z,4988.00
2018-09-23T11:27:30.851Z,5008.00
2018-09-23T11:28:30.733Z,4796.00
2018-09-23T11:29:30.623Z,3212.00
2018-09-23T11:30:30.518Z,2148.00
2018-09-23T11:31:30.400Z,2604.00
2018-09-23T11:32:30.283Z,3944.00
2018-09-23T11:33:30.168Z,4244.00
2018-09-23T11:34:30.053Z,3588.00
2018-09-23T11:35:29.939Z,3692.00
2018-09-23T11:36:29.834Z,5612.00
2018-09-23T11:37:29.718Z,5324.00
2018-09-23T11:38:29.617Z,6188.00
2018-09-23T11:39:29.484Z,7660.00
2018-09-23T11:40:29.369Z,6396.00
2018-09-23T11:41:29.257Z,5160.00
2018-09-23T11:42:29.141Z,4248.00
2018-09-23T11:43:29.026Z,4456.00
2018-09-23T11:44:28.911Z,4088.00
2018-09-23T11:45:28.797Z,4400.00
2018-09-23T11:46:28.684Z,4884.00
2018-09-23T11:47:28.570Z,4376.00
2018-09-23T11:48:28.453Z,4692.00
2018-09-23T11:49:28.343Z,6348.00
2018-09-23T11:50:28.224Z,5500.00
2018-09-23T11:51:28.110Z,6332.00
2018-09-23T11:52:27.996Z,4924.00
2018-09-23T11:53:27.878Z,5448.00
2018-09-23T11:54:27.766Z,6072.00
2018-09-23T11:55:27.726Z,5508.00
2018-09-23T11:56:27.537Z,4584.00
2018-09-23T11:57:27.419Z,5880.00
2018-09-23T11:58:27.305Z,5152.00
2018-09-23T11:59:27.190Z,5504.00
2018-09-23T12:00:27.076Z,5920.00
2018-09-23T12:01:26.960Z,4848.00
2018-09-23T12:02:26.846Z,5460.00
2018-09-23T12:03:26.731Z,5480.00
2018-09-23T12:04:26.652Z,5136.00
2018-09-23T12:05:26.498Z,6280.00
2018-09-23T12:06:26.386Z,6232.00
2018-09-23T12:07:26.270Z,5960.00
2018-09-23T12:08:26.155Z,6208.00
2018-09-23T12:09:26.040Z,6808.00
2018-09-23T12:10:26.039Z,5748.00
2018-09-23T12:11:25.846Z,6936.00
2018-09-23T12:12:25.700Z,6836.00
2018-09-23T12:13:25.576Z,7504.00
2018-09-23T12:14:25.476Z,7260.00
2018-09-23T12:15:25.349Z,6808.00
2018-09-23T12:16:25.229Z,7232.00
2018-09-23T12:17:25.115Z,6616.00
2018-09-23T12:18:25.000Z,6368.00
2018-09-23T12:19:24.887Z,6976.00
2018-09-23T12:20:24.775Z,6668.00
2018-09-23T12:21:24.656Z,5968.00
2018-09-23T12:22:24.541Z,5304.00
2018-09-23T12:23:24.428Z,3784.00
2018-09-23T12:24:24.313Z,3724.00
2018-09-23T12:25:24.274Z,3180.00
2018-09-23T12:26:24.081Z,1832.00
2018-09-23T12:27:23.967Z,2320.00
2018-09-23T12:28:23.849Z,3448.00
2018-09-23T12:29:23.734Z,4348.00
2018-09-23T12:30:23.623Z,5616.00
2018-09-23T12:31:23.505Z,4416.00
2018-09-23T12:32:23.388Z,4176.00
2018-09-23T12:33:23.373Z,4032.00
2018-09-23T12:34:23.163Z,4412.00
2018-09-23T12:35:23.049Z,5288.00
2018-09-23T12:36:22.927Z,6760.00
2018-09-23T12:37:22.816Z,6324.00
2018-09-23T12:38:22.699Z,6124.00
2018-09-23T12:39:22.653Z,5960.00
2018-09-23T12:40:22.465Z,6896.00
2018-09-23T12:41:22.358Z,7484.00
2018-09-23T12:42:22.237Z,6300.00
2018-09-23T12:43:22.123Z,5888.00
2018-09-23T12:44:22.008Z,4936.00
2018-09-23T12:45:21.910Z,5184.00
2018-09-23T12:46:21.771Z,5188.00
2018-09-23T12:47:21.665Z,5132.00
2018-09-23T12:48:21.543Z,3468.00
2018-09-23T12:49:21.495Z,3172.00
2018-09-23T12:50:21.312Z,3420.00
2018-09-23T12:51:21.237Z,3792.00
2018-09-23T12:52:21.236Z,5244.00
2018-09-23T12:53:20.965Z,7212.00
2018-09-23T12:54:20.853Z,7340.00
2018-09-23T12:55:20.738Z,7864.00
2018-09-23T12:56:20.619Z,8016.00
2018-09-23T12:57:20.502Z,7744.00
2018-09-23T12:58:20.390Z,7348.00
2018-09-23T12:59:20.273Z,6900.00
2018-09-23T13:00:20.159Z,7280.00
2018-09-23T13:01:20.049Z,6472.00
2018-09-23T13:02:19.965Z,6540.00
2018-09-23T13:03:19.821Z,7028.00
2018-09-23T13:04:19.700Z,7216.00
2018-09-23T13:05:19.587Z,6988.00
2018-09-23T13:06:19.471Z,7260.00
2018-09-23T13:07:20.365Z,5484.00